Time;durP1;ratioP1;P1;durP2;ratioP2;P2;SDS_P1;SDS_P2;PMS_P1;PMS_P2;Temp;Humidity;BMP_temperature;BMP_pressure;BME280_temperature;BME280_humidity;BME280_pressure;Samples;Min_cycle;Max_cycle;Signal;HPM_P1;HPM_P2
2021/04/28 00:02:08;;;;;;;7.47;4.55;;;12.90;40.30;;;;;;5121376;27;20023;-71
2021/04/28 00:04:34;;;;;;;9.15;5.68;;;12.90;40.10;;;;;;5135245;27;20122;-71
2021/04/28 00:07:03;;;;;;;7.30;4.45;;;12.90;40.10;;;;;;5135443;27;20107;-71
2021/04/28 00:09:30;;;;;;;8.05;5.30;;;12.80;40.20;;;;;;5118434;27;20389;-72
2021/04/28 00:11:57;;;;;;;10.40;5.82;;;12.80;40.10;;;;;;5115019;27;20483;-71
2021/04/28 00:14:23;;;;;;;6.05;4.40;;;12.80;40.10;;;;;;5119159;27;20027;-72
2021/04/28 00:16:49;;;;;;;3.90;2.80;;;12.80;40.20;;;;;;5128921;27;20024;-73
2021/04/28 00:19:15;;;;;;;6.03;3.53;;;12.80;40.00;;;;;;5132089;27;20023;-72
2021/04/28 00:21:41;;;;;;;5.57;3.40;;;12.70;40.10;;;;;;5135421;27;20035;-72
2021/04/28 00:24:07;;;;;;;5.43;3.83;;;12.60;40.50;;;;;;5133836;27;20043;-72
2021/04/28 00:26:33;;;;;;;7.43;3.80;;;12.60;40.80;;;;;;5134145;27;20019;-71
2021/04/28 00:28:59;;;;;;;4.72;3.40;;;12.60;41.00;;;;;;5133004;27;20536;-71
2021/04/28 00:31:24;;;;;;;4.38;3.28;;;12.60;41.00;;;;;;5114545;28;20099;-71
2021/04/28 00:33:50;;;;;;;6.03;4.07;;;12.50;41.40;;;;;;5122447;27;20031;-72
2021/04/28 00:36:16;;;;;;;5.82;4.05;;;12.50;41.30;;;;;;5116413;27;20028;-71
2021/04/28 00:38:42;;;;;;;5.60;3.28;;;12.50;41.40;;;;;;5122903;27;20023;-72
2021/04/28 00:41:08;;;;;;;3.33;2.70;;;12.50;41.30;;;;;;5133343;27;20477;-72
2021/04/28 00:43:36;;;;;;;4.15;2.70;;;12.40;41.10;;;;;;5131579;27;20024;-71
2021/04/28 00:46:03;;;;;;;5.55;2.65;;;12.40;41.00;;;;;;5114508;28;20023;-72
2021/04/28 00:48:29;;;;;;;5.60;3.20;;;12.30;41.10;;;;;;5114363;28;20405;-71
2021/04/28 00:50:55;;;;;;;4.20;2.78;;;12.30;41.50;;;;;;5122373;27;20055;-71
2021/04/28 00:53:24;;;;;;;3.78;2.83;;;12.20;41.30;;;;;;5133925;27;20046;-71
2021/04/28 00:55:51;;;;;;;5.28;3.00;;;12.10;41.40;;;;;;5134165;27;20024;-71
2021/04/28 00:58:19;;;;;;;4.22;2.83;;;12.10;41.30;;;;;;5130809;27;20024;-71
2021/04/28 01:00:46;;;;;;;2.97;2.20;;;12.00;41.70;;;;;;5112906;28;20485;-71
2021/04/28 01:03:11;;;;;;;4.22;2.97;;;12.00;41.50;;;;;;5114107;28;20031;-72
2021/04/28 01:05:38;;;;;;;4.07;2.83;;;11.90;41.50;;;;;;5114138;28;20149;-71
2021/04/28 01:08:04;;;;;;;4.78;2.92;;;11.80;41.90;;;;;;5114029;28;20023;-71
2021/04/28 01:10:32;;;;;;;6.68;2.83;;;11.80;42.10;;;;;;5116186;27;20090;-71
2021/04/28 01:12:58;;;;;;;3.95;2.80;;;11.80;42.10;;;;;;5134358;27;20050;-71
2021/04/28 01:15:28;;;;;;;4.28;2.55;;;11.70;41.90;;;;;;5132960;27;20030;-71
2021/04/28 01:17:55;;;;;;;5.10;3.00;;;11.70;42.10;;;;;;5134199;27;20368;-72
2021/04/28 01:20:23;;;;;;;5.05;2.88;;;11.60;42.30;;;;;;5134237;27;20026;-72
2021/04/28 01:22:50;;;;;;;3.38;2.58;;;11.60;42.90;;;;;;5131663;27;20110;-72
2021/04/28 01:25:19;;;;;;;3.67;2.53;;;11.60;42.70;;;;;;5134175;27;20027;-72
2021/04/28 01:28:05;;;;;;;4.78;2.95;;;11.50;42.70;;;;;;5132266;27;20055;-71
2021/04/28 01:31:10;;;;;;;4.72;2.50;;;11.40;43.10;;;;;;5134312;27;20426;-72
2021/04/28 01:33:35;;;;;;;;;;;11.40;43.00;;;;;;5132572;27;20361;-72
2021/04/28 01:36:04;;;;;;;3.05;2.50;;;11.40;41.90;;;;;;5124572;27;19919;-71
2021/04/28 01:38:36;;;;;;;3.50;2.65;;;11.40;42.70;;;;;;5114680;27;20024;-72
2021/04/28 01:41:03;;;;;;;4.03;2.60;;;11.30;42.90;;;;;;5113384;28;20107;-71
2021/04/28 01:43:29;;;;;;;6.40;2.88;;;11.30;43.00;;;;;;5118799;27;20015;-71
2021/04/28 01:45:56;;;;;;;4.10;2.60;;;11.20;43.50;;;;;;5132203;27;20384;-71
2021/04/28 01:48:21;;;;;;;4.97;2.97;;;11.20;43.30;;;;;;5131985;27;20468;-72
2021/04/28 01:50:49;;;;;;;5.20;2.80;;;11.10;43.20;;;;;;5133845;27;20072;-71
2021/04/28 01:53:17;;;;;;;4.38;2.40;;;11.10;43.60;;;;;;5121597;27;20042;-71
2021/04/28 01:55:44;;;;;;;3.90;2.67;;;11.10;43.90;;;;;;5132490;27;20479;-71
2021/04/28 01:58:11;;;;;;;3.17;2.33;;;11.10;43.80;;;;;;5132074;27;20090;-72
2021/04/28 02:00:38;;;;;;;3.15;2.60;;;11.00;43.70;;;;;;5133666;27;20420;-71
2021/04/28 02:03:04;;;;;;;3.65;2.42;;;11.00;43.80;;;;;;5132279;27;20075;-71
2021/04/28 02:05:30;;;;;;;3.20;2.58;;;11.00;43.90;;;;;;5132806;27;20031;-72
2021/04/28 02:07:56;;;;;;;4.50;2.95;;;11.00;44.10;;;;;;5133646;27;20087;-72
2021/04/28 02:10:22;;;;;;;7.10;2.50;;;11.00;44.20;;;;;;5133652;27;20027;-71
2021/04/28 02:12:48;;;;;;;4.32;2.15;;;10.90;44.20;;;;;;5128664;27;20575;-71
2021/04/28 02:15:15;;;;;;;3.55;2.78;;;10.90;44.30;;;;;;5111573;28;20028;-71
2021/04/28 02:17:42;;;;;;;4.53;2.67;;;10.90;44.30;;;;;;5111693;28;20027;-72
2021/04/28 02:20:10;;;;;;;9.60;3.10;;;10.90;44.80;;;;;;5119324;27;20068;-71
2021/04/28 02:22:40;;;;;;;4.03;2.78;;;10.90;44.80;;;;;;5133159;27;20015;-71
2021/04/28 02:25:07;;;;;;;4.30;2.40;;;10.80;44.80;;;;;;5113609;27;20028;-71
2021/04/28 02:27:34;;;;;;;2.97;2.15;;;10.80;44.50;;;;;;5112580;28;20030;-71
2021/04/28 02:30:03;;;;;;;4.10;3.00;;;10.80;44.80;;;;;;5112471;28;20019;-71
2021/04/28 02:32:29;;;;;;;3.63;2.83;;;10.80;45.00;;;;;;5111421;28;20393;-71
2021/04/28 02:34:55;;;;;;;3.83;2.58;;;10.80;45.50;;;;;;5112553;28;20031;-71
2021/04/28 02:37:24;;;;;;;4.78;2.35;;;10.80;45.00;;;;;;5125445;28;20023;-72
2021/04/28 02:39:56;;;;;;;3.55;2.42;;;10.70;44.90;;;;;;5127188;28;20560;-71
2021/04/28 02:42:23;;;;;;;4.28;2.67;;;10.70;44.90;;;;;;5132995;27;20051;-71
2021/04/28 02:44:48;;;;;;;3.65;2.85;;;10.70;45.30;;;;;;5114440;27;20106;-71
2021/04/28 02:47:15;;;;;;;4.65;2.97;;;10.70;45.70;;;;;;5119645;28;20099;-71
2021/04/28 02:49:43;;;;;;;5.65;2.75;;;10.70;45.50;;;;;;5132970;27;20357;-71
2021/04/28 02:52:10;;;;;;;3.85;3.05;;;10.60;45.50;;;;;;5132827;27;20122;-71
2021/04/28 02:54:38;;;;;;;8.68;2.75;;;10.60;45.50;;;;;;5132509;27;20023;-71
2021/04/28 02:57:06;;;;;;;5.75;3.35;;;10.60;45.90;;;;;;5127982;28;20400;-71
2021/04/28 02:59:32;;;;;;;6.07;3.30;;;10.60;46.20;;;;;;5112352;28;20031;-71
2021/04/28 03:01:58;;;;;;;7.82;3.28;;;10.60;46.60;;;;;;5112317;28;20039;-71
2021/04/28 03:04:25;;;;;;;5.15;2.88;;;10.50;46.30;;;;;;5110749;28;20476;-70
2021/04/28 03:06:51;;;;;;;5.25;3.20;;;10.50;46.40;;;;;;5112362;28;20425;-71
2021/04/28 03:09:17;;;;;;;5.10;2.60;;;10.50;46.40;;;;;;5112034;28;20103;-71
2021/04/28 03:11:43;;;;;;;3.45;2.30;;;10.50;46.40;;;;;;5112162;28;20024;-72
2021/04/28 03:14:10;;;;;;;5.80;3.42;;;10.50;46.30;;;;;;5112114;28;20160;-71
2021/04/28 03:16:36;;;;;;;6.15;2.63;;;10.40;46.60;;;;;;5112434;28;20035;-71
2021/04/28 03:19:04;;;;;;;6.80;3.20;;;10.40;46.60;;;;;;5134221;27;20047;-71
2021/04/28 03:21:34;;;;;;;5.15;2.67;;;10.40;46.80;;;;;;5135217;27;20484;-72
2021/04/28 03:24:01;;;;;;;4.82;2.70;;;10.40;46.60;;;;;;5129708;27;20391;-72
2021/04/28 03:26:28;;;;;;;4.60;2.95;;;10.40;46.70;;;;;;5116556;27;20020;-71
2021/04/28 03:28:54;;;;;;;4.00;2.75;;;10.30;46.60;;;;;;5114872;27;20024;-71
2021/04/28 03:31:19;;;;;;;4.10;2.83;;;10.30;46.90;;;;;;5115782;28;20503;-71
2021/04/28 03:33:46;;;;;;;8.45;2.75;;;10.30;47.10;;;;;;5115625;28;20031;-71
2021/04/28 03:36:12;;;;;;;4.40;3.33;;;10.20;47.00;;;;;;5115527;27;20051;-72
2021/04/28 03:38:37;;;;;;;4.68;2.90;;;10.20;47.20;;;;;;5130864;27;20049;-72
2021/04/28 03:41:04;;;;;;;3.80;2.97;;;10.20;47.10;;;;;;5136630;27;20468;-71
2021/04/28 03:43:29;;;;;;;4.93;2.75;;;10.20;47.20;;;;;;5132161;27;20507;-72
2021/04/28 03:45:56;;;;;;;3.72;2.80;;;10.20;47.20;;;;;;5136079;27;20027;-72
2021/04/28 03:48:21;;;;;;;4.07;2.83;;;10.20;47.20;;;;;;5136025;27;20023;-72
2021/04/28 03:50:47;;;;;;;3.75;2.55;;;10.20;47.30;;;;;;5136727;27;20027;-71
2021/04/28 03:53:13;;;;;;;6.55;2.97;;;10.20;47.70;;;;;;5135964;27;20054;-72
2021/04/28 03:55:40;;;;;;;5.15;2.85;;;10.10;48.00;;;;;;5135395;27;20095;-71
2021/04/28 03:58:06;;;;;;;4.47;2.63;;;10.10;47.90;;;;;;5122381;27;20068;-72
2021/04/28 04:00:32;;;;;;;6.60;3.33;;;10.10;48.20;;;;;;5115706;28;20020;-71
2021/04/28 04:02:57;;;;;;;7.93;3.47;;;10.10;48.10;;;;;;5116020;27;20481;-72
2021/04/28 04:05:23;;;;;;;6.05;3.20;;;10.10;48.30;;;;;;5115844;28;20027;-72
2021/04/28 04:07:50;;;;;;;6.88;3.10;;;10.10;48.30;;;;;;5116632;27;20109;-71
2021/04/28 04:10:16;;;;;;;6.00;3.13;;;10.10;48.20;;;;;;5116088;28;20491;-71
2021/04/28 04:12:42;;;;;;;9.85;3.13;;;10.10;48.40;;;;;;5133804;27;20472;-71
2021/04/28 04:15:09;;;;;;;7.65;3.83;;;10.10;48.40;;;;;;5136601;27;20098;-71
2021/04/28 04:17:35;;;;;;;5.72;3.20;;;10.10;48.70;;;;;;5135775;27;20495;-72
2021/04/28 04:20:02;;;;;;;5.50;3.50;;;10.10;48.60;;;;;;5136081;27;20038;-72
2021/04/28 04:22:27;;;;;;;5.30;3.42;;;10.20;48.50;;;;;;5131299;27;20059;-71
2021/04/28 04:24:53;;;;;;;7.07;2.83;;;10.20;48.50;;;;;;5131925;27;20058;-71
2021/04/28 04:27:19;;;;;;;4.38;3.05;;;10.20;48.40;;;;;;5135640;27;20015;-70
2021/04/28 04:29:45;;;;;;;7.85;3.50;;;10.20;48.50;;;;;;5133101;27;20087;-72
2021/04/28 04:32:11;;;;;;;9.13;3.80;;;10.20;48.50;;;;;;5135785;27;20023;-72
2021/04/28 04:34:37;;;;;;;13.27;4.78;;;10.20;49.10;;;;;;5135868;27;20027;-72
2021/04/28 04:37:05;;;;;;;9.93;3.95;;;10.30;49.20;;;;;;5134388;27;20038;-72
2021/04/28 04:39:31;;;;;;;9.05;4.53;;;10.30;49.10;;;;;;5135472;27;20075;-72
2021/04/28 04:41:57;;;;;;;11.07;4.57;;;10.40;49.10;;;;;;5135419;27;20072;-72
2021/04/28 04:44:23;;;;;;;17.13;4.72;;;10.40;49.10;;;;;;5116144;27;20430;-72
2021/04/28 04:46:49;;;;;;;9.75;4.47;;;10.50;49.30;;;;;;5131994;27;20536;-72
2021/04/28 04:49:15;;;;;;;8.52;4.03;;;10.50;49.20;;;;;;5135303;27;20016;-72
2021/04/28 04:51:40;;;;;;;10.68;4.05;;;10.60;49.20;;;;;;5135283;27;20091;-72
2021/04/28 04:54:06;;;;;;;8.15;3.60;;;10.60;49.10;;;;;;5134410;27;20484;-71
2021/04/28 04:56:32;;;;;;;9.75;3.58;;;10.70;49.00;;;;;;5135365;27;20472;-72
2021/04/28 04:58:58;;;;;;;9.70;3.78;;;10.70;49.00;;;;;;5115370;27;20422;-71
2021/04/28 05:01:24;;;;;;;17.10;4.13;;;10.80;49.10;;;;;;5133128;27;20032;-72
2021/04/28 05:03:50;;;;;;;12.05;3.75;;;10.90;49.30;;;;;;5115367;27;20035;-72
2021/04/28 05:06:16;;;;;;;6.60;3.38;;;10.90;49.40;;;;;;5114760;28;20024;-71
2021/04/28 05:08:41;;;;;;;7.15;3.42;;;10.90;49.10;;;;;;5115018;27;20020;-72
2021/04/28 05:11:07;;;;;;;8.88;3.75;;;11.00;49.20;;;;;;5113048;28;20545;-72
2021/04/28 05:13:33;;;;;;;6.35;3.20;;;11.00;49.30;;;;;;5114404;28;20028;-71
2021/04/28 05:15:59;;;;;;;5.05;3.13;;;11.10;49.20;;;;;;5125915;27;20383;-71
2021/04/28 05:18:25;;;;;;;6.03;2.90;;;11.10;49.10;;;;;;5116290;27;20388;-73
2021/04/28 05:20:51;;;;;;;5.75;3.75;;;11.20;49.00;;;;;;5134682;27;20026;-72
2021/04/28 05:23:16;;;;;;;6.07;3.67;;;11.20;49.10;;;;;;5119453;27;20053;-71
2021/04/28 05:25:42;;;;;;;6.45;3.70;;;11.30;49.30;;;;;;5133289;27;20031;-72
2021/04/28 05:28:08;;;;;;;8.10;3.45;;;11.40;49.30;;;;;;5133340;27;20023;-72
2021/04/28 05:30:34;;;;;;;6.60;3.17;;;11.40;49.20;;;;;;5119439;27;20020;-71
2021/04/28 05:32:59;;;;;;;7.40;3.80;;;11.50;49.10;;;;;;5126111;27;20024;-72
2021/04/28 05:35:25;;;;;;;7.15;3.10;;;11.50;48.80;;;;;;5113873;28;20098;-72
2021/04/28 05:37:51;;;;;;;8.05;4.45;;;11.60;48.60;;;;;;5117354;27;20023;-71
2021/04/28 05:40:18;;;;;;;5.65;3.42;;;11.60;48.50;;;;;;5123904;27;20027;-72
2021/04/28 05:42:44;;;;;;;4.82;3.60;;;11.70;48.20;;;;;;5134235;27;20571;-72
2021/04/28 05:45:11;;;;;;;4.55;3.42;;;11.80;48.00;;;;;;5134186;27;20027;-72
2021/04/28 05:47:37;;;;;;;4.43;3.45;;;11.90;47.90;;;;;;5132468;27;20024;-72
2021/04/28 05:50:06;;;;;;;5.13;3.58;;;11.90;47.50;;;;;;5134238;27;20421;-71
2021/04/28 05:52:32;;;;;;;9.13;3.70;;;12.00;47.30;;;;;;5129747;27;20028;-72
2021/04/28 05:54:58;;;;;;;8.88;3.42;;;12.00;47.50;;;;;;5129702;27;20046;-72
2021/04/28 05:57:23;;;;;;;7.80;4.38;;;12.10;47.60;;;;;;5133897;27;20476;-72
2021/04/28 05:59:49;;;;;;;7.00;4.22;;;12.20;47.50;;;;;;5114454;27;20028;-72
2021/04/28 06:02:15;;;;;;;7.35;4.43;;;12.30;47.40;;;;;;5112011;28;20476;-71
2021/04/28 06:04:41;;;;;;;9.52;4.18;;;12.30;47.70;;;;;;5113328;28;20062;-72
2021/04/28 06:07:06;;;;;;;8.85;4.88;;;12.40;47.80;;;;;;5118641;27;20487;-72
2021/04/28 06:09:33;;;;;;;10.70;5.03;;;12.50;48.20;;;;;;5133909;27;20102;-72
2021/04/28 06:11:59;;;;;;;9.73;5.28;;;12.50;48.10;;;;;;5129621;27;20023;-72
2021/04/28 06:14:24;;;;;;;7.65;4.53;;;12.60;47.80;;;;;;5113252;28;20031;-72
2021/04/28 06:16:50;;;;;;;8.43;4.35;;;12.70;47.70;;;;;;5113255;27;20019;-72
2021/04/28 06:19:16;;;;;;;12.90;5.30;;;12.70;47.50;;;;;;5112314;28;20215;-72
2021/04/28 06:21:42;;;;;;;11.07;6.30;;;12.80;47.10;;;;;;5113126;28;20481;-72
2021/04/28 06:24:09;;;;;;;14.93;6.97;;;12.90;46.80;;;;;;5121819;27;20379;-72
2021/04/28 06:26:36;;;;;;;13.00;6.47;;;13.00;46.50;;;;;;5133581;27;20453;-73
2021/04/28 06:29:03;;;;;;;17.65;6.55;;;13.10;46.20;;;;;;5133503;27;20019;-72
2021/04/28 06:31:28;;;;;;;10.73;5.97;;;13.20;46.00;;;;;;5117269;27;20094;-72
2021/04/28 06:33:54;;;;;;;12.07;5.82;;;13.20;45.80;;;;;;5113380;28;20048;-72
2021/04/28 06:36:20;;;;;;;9.35;5.30;;;13.30;45.60;;;;;;5113134;28;20098;-72
2021/04/28 06:38:46;;;;;;;20.83;7.18;;;13.40;45.70;;;;;;5121032;28;20028;-72
2021/04/28 06:41:12;;;;;;;21.15;7.75;;;13.50;45.40;;;;;;5132117;28;20037;-71
2021/04/28 06:43:37;;;;;;;13.00;7.38;;;13.60;45.00;;;;;;5133307;27;20042;-71
2021/04/28 06:46:03;;;;;;;15.48;6.72;;;13.70;44.60;;;;;;5133619;27;20012;-71
2021/04/28 06:48:29;;;;;;;14.90;7.05;;;13.80;44.60;;;;;;5133647;28;20023;-71
2021/04/28 06:50:55;;;;;;;10.82;6.32;;;13.90;44.40;;;;;;5133720;27;20019;-71
2021/04/28 06:53:22;;;;;;;11.10;6.32;;;14.00;44.40;;;;;;5127165;27;20074;-71
2021/04/28 06:55:48;;;;;;;8.85;5.65;;;14.00;44.30;;;;;;5137638;27;20027;-71
2021/04/28 06:58:15;;;;;;;9.90;5.80;;;14.10;44.20;;;;;;5137719;27;20034;-70
2021/04/28 07:00:41;;;;;;;9.52;5.63;;;14.20;44.00;;;;;;5121776;27;20023;-71
2021/04/28 07:03:07;;;;;;;8.90;5.35;;;14.30;43.60;;;;;;5117047;28;20088;-71
2021/04/28 07:05:33;;;;;;;8.70;5.30;;;14.40;43.60;;;;;;5117098;28;20015;-71
2021/04/28 07:07:59;;;;;;;11.02;4.93;;;14.50;43.20;;;;;;5134721;27;20035;-71
2021/04/28 07:10:26;;;;;;;8.52;4.88;;;14.60;42.80;;;;;;5130232;27;20024;-71
2021/04/28 07:12:53;;;;;;;10.23;4.25;;;14.70;42.90;;;;;;5115989;28;20016;-71
2021/04/28 07:15:19;;;;;;;6.15;4.07;;;14.70;42.60;;;;;;5116823;28;20480;-71
2021/04/28 07:17:46;;;;;;;8.40;4.35;;;14.80;42.50;;;;;;5134998;27;20034;-71
2021/04/28 07:20:13;;;;;;;13.63;4.40;;;14.90;42.00;;;;;;5136582;27;20023;-71
2021/04/28 07:22:39;;;;;;;8.70;4.13;;;15.00;41.90;;;;;;5137435;27;20027;-71
2021/04/28 07:25:05;;;;;;;15.45;4.28;;;15.10;41.80;;;;;;5136932;27;20447;-73
2021/04/28 07:27:31;;;;;;;7.35;3.40;;;15.20;42.40;;;;;;5137315;27;20353;-73
2021/04/28 07:29:57;;;;;;;9.70;4.10;;;15.20;41.70;;;;;;5119641;27;20073;-73
2021/04/28 07:32:24;;;;;;;9.40;4.20;;;15.40;41.70;;;;;;5116432;28;20023;-71
2021/04/28 07:34:49;;;;;;;8.52;4.03;;;15.50;41.20;;;;;;5116444;28;20107;-71
2021/04/28 07:37:15;;;;;;;5.43;3.60;;;15.50;41.10;;;;;;5116395;28;20059;-71
2021/04/28 07:39:41;;;;;;;6.32;4.25;;;15.60;41.10;;;;;;5130710;27;20066;-71
2021/04/28 07:42:07;;;;;;;7.00;3.95;;;15.70;41.00;;;;;;5116457;27;20036;-71
2021/04/28 07:44:33;;;;;;;6.47;3.80;;;15.80;40.50;;;;;;5114616;28;20027;-71
2021/04/28 07:47:00;;;;;;;6.82;4.10;;;15.90;40.40;;;;;;5114543;28;20377;-71
2021/04/28 07:49:27;;;;;;;8.93;3.55;;;15.90;39.90;;;;;;5115811;28;20032;-71
2021/04/28 07:51:53;;;;;;;8.10;3.95;;;16.00;40.20;;;;;;5124942;27;20082;-71
2021/04/28 07:54:20;;;;;;;11.75;5.13;;;16.10;39.90;;;;;;5136320;27;20034;-71
2021/04/28 07:56:46;;;;;;;4.50;3.60;;;16.20;39.80;;;;;;5136269;27;20015;-73
2021/04/28 07:59:13;;;;;;;5.32;3.30;;;16.20;39.70;;;;;;5116988;27;20020;-71
2021/04/28 08:01:39;;;;;;;6.78;3.72;;;16.30;39.80;;;;;;5136294;27;20023;-71
2021/04/28 08:04:05;;;;;;;5.38;3.58;;;16.40;39.50;;;;;;5134589;27;20389;-71
2021/04/28 08:06:31;;;;;;;6.72;3.65;;;16.50;39.30;;;;;;5134741;27;20031;-71
2021/04/28 08:08:57;;;;;;;5.63;3.42;;;16.60;39.20;;;;;;5125440;27;20103;-71
2021/04/28 08:11:23;;;;;;;4.63;3.50;;;16.70;39.20;;;;;;5130697;27;20055;-71
2021/04/28 08:13:48;;;;;;;3.50;2.78;;;16.80;38.80;;;;;;5130756;27;20039;-71
2021/04/28 08:16:15;;;;;;;8.85;3.80;;;16.80;38.90;;;;;;5136131;27;20033;-73
2021/04/28 08:18:41;;;;;;;4.47;3.42;;;17.00;38.40;;;;;;5136160;27;20361;-71
2021/04/28 08:21:07;;;;;;;5.20;3.47;;;17.00;38.10;;;;;;5115982;27;20076;-71
2021/04/28 08:23:33;;;;;;;4.82;3.50;;;17.00;38.10;;;;;;5120662;27;20027;-74
2021/04/28 08:26:04;;;;;;;9.02;3.45;;;17.10;38.10;;;;;;5133366;27;20023;-73
2021/04/28 08:28:30;;;;;;;6.70;3.17;;;17.20;38.20;;;;;;5136010;27;20011;-73
2021/04/28 08:30:56;;;;;;;4.13;3.13;;;17.30;38.10;;;;;;5135918;27;20084;-73
2021/04/28 08:33:21;;;;;;;8.52;3.78;;;17.40;38.60;;;;;;5135908;27;20035;-73
2021/04/28 08:35:47;;;;;;;11.43;3.53;;;17.50;37.40;;;;;;5135827;27;20031;-73
2021/04/28 08:38:13;;;;;;;7.35;3.25;;;17.60;37.40;;;;;;5119475;27;20499;-73
2021/04/28 08:40:39;;;;;;;6.80;3.38;;;17.60;37.00;;;;;;5121509;27;20019;-73
2021/04/28 08:43:05;;;;;;;5.47;3.55;;;17.70;37.00;;;;;;5129551;27;20035;-73
2021/04/28 08:45:32;;;;;;;5.50;3.85;;;17.80;36.70;;;;;;5116197;27;20023;-73
2021/04/28 08:47:58;;;;;;;3.90;2.63;;;17.80;36.60;;;;;;5122692;27;20471;-73
2021/04/28 08:50:24;;;;;;;4.80;3.30;;;17.90;36.60;;;;;;5133968;27;20011;-73
2021/04/28 08:52:54;;;;;;;7.65;3.25;;;18.00;36.80;;;;;;5134915;27;20100;-73
2021/04/28 08:55:20;;;;;;;10.50;4.70;;;18.10;36.50;;;;;;5131514;27;20030;-73
2021/04/28 08:57:46;;;;;;;5.75;3.75;;;18.10;35.70;;;;;;5121176;27;20118;-74
2021/04/28 09:00:13;;;;;;;3.67;3.28;;;18.20;36.20;;;;;;5132960;27;20054;-73
2021/04/28 09:03:02;;;;;;;5.60;3.83;;;18.30;36.10;;;;;;5134565;27;20023;-74
2021/04/28 09:05:32;;;;;;;5.07;3.10;;;18.40;36.20;;;;;;5129411;27;20388;-73
2021/04/28 09:07:59;;;;;;;5.93;3.63;;;18.50;36.10;;;;;;5114306;27;20492;-74
2021/04/28 09:10:27;;;;;;;8.43;3.08;;;18.50;35.60;;;;;;5120572;27;20031;-74
2021/04/28 09:12:57;;;;;;;4.97;3.55;;;18.60;35.50;;;;;;5118272;27;20035;-71
2021/04/28 09:15:42;;;;;;;4.55;3.53;;;18.70;35.10;;;;;;5114251;27;20044;-71
2021/04/28 09:18:11;;;;;;;5.22;3.50;;;18.80;34.60;;;;;;5133511;27;20027;-71
2021/04/28 09:20:41;;;;;;;5.25;3.97;;;18.90;34.70;;;;;;5116412;27;20024;-71
2021/04/28 09:23:16;;;;;;;4.20;3.05;;;18.90;34.60;;;;;;5127183;27;20042;-71
2021/04/28 09:25:53;;;;;;;3.88;2.67;;;19.00;34.40;;;;;;5116085;27;20024;-73
2021/04/28 09:28:34;;;;;;;6.85;2.55;;;19.20;34.30;;;;;;5114446;28;20019;-71
2021/04/28 09:31:05;;;;;;;4.78;3.17;;;19.30;34.20;;;;;;5144674;27;20426;-72
2021/04/28 09:33:40;;;;;;;3.30;2.60;;;19.40;34.20;;;;;;5132287;27;20054;-72
2021/04/28 09:36:07;;;;;;;4.43;3.40;;;19.60;34.00;;;;;;5131280;27;20051;-73
2021/04/28 09:38:48;;;;;;;4.72;3.58;;;19.80;33.50;;;;;;5127235;27;20041;-71
2021/04/28 09:41:51;;;;;;;4.80;3.15;;;19.90;33.20;;;;;;5116534;27;20015;-71
2021/04/28 09:44:20;;;;;;;6.57;4.47;;;20.10;33.70;;;;;;5126730;27;20027;-72
2021/04/28 09:47:17;;;;;;;10.90;4.75;;;20.20;32.50;;;;;;5134676;27;20023;-72
2021/04/28 09:49:52;;;;;;;9.05;4.75;;;20.40;32.50;;;;;;5125129;27;20492;-71
2021/04/28 09:52:21;;;;;;;14.10;5.03;;;20.60;33.00;;;;;;5126418;27;20039;-71
2021/04/28 09:54:49;;;;;;;7.70;4.55;;;20.70;32.20;;;;;;5128118;27;20040;-71
2021/04/28 09:57:18;;;;;;;4.82;3.40;;;20.90;31.90;;;;;;5125185;27;20057;-71
2021/04/28 09:59:51;;;;;;;6.38;4.28;;;21.10;31.70;;;;;;5131852;27;20084;-72
2021/04/28 10:02:29;;;;;;;6.78;5.18;;;21.20;31.10;;;;;;5132660;27;20389;-73
2021/04/28 10:05:20;;;;;;;5.88;4.93;;;21.30;30.80;;;;;;5130549;27;20076;-72
2021/04/28 10:07:47;;;;;;;7.40;4.25;;;21.40;31.10;;;;;;5114047;28;20220;-71
2021/04/28 10:10:14;;;;;;;4.53;3.63;;;21.60;30.20;;;;;;5120525;27;20021;-71
2021/04/28 10:12:41;;;;;;;4.32;3.80;;;21.70;30.30;;;;;;5115794;27;20396;-72
2021/04/28 10:15:08;;;;;;;5.07;3.50;;;21.70;30.00;;;;;;5127667;27;20095;-72
2021/04/28 10:17:37;;;;;;;5.10;3.35;;;21.80;30.00;;;;;;5119629;27;20058;-72
2021/04/28 10:20:05;;;;;;;6.72;4.57;;;21.90;29.50;;;;;;5133403;27;20487;-72
2021/04/28 10:22:33;;;;;;;6.03;3.90;;;22.00;29.20;;;;;;5132530;27;20054;-72
2021/04/28 10:25:00;;;;;;;6.45;4.10;;;22.00;29.40;;;;;;5122658;27;20050;-71
2021/04/28 10:27:27;;;;;;;5.35;4.07;;;22.10;29.40;;;;;;5123423;27;20023;-71
2021/04/28 10:29:54;;;;;;;4.55;3.22;;;22.10;29.20;;;;;;5123821;27;20083;-72
2021/04/28 10:32:21;;;;;;;5.25;3.40;;;22.20;29.40;;;;;;5112761;28;20402;-72
2021/04/28 10:35:05;;;;;;;5.05;3.85;;;22.30;29.30;;;;;;5122003;28;20175;-72
2021/04/28 10:37:34;;;;;;;4.97;3.30;;;22.30;29.80;;;;;;5128786;27;20031;-72
2021/04/28 10:40:00;;;;;;;5.63;3.35;;;22.40;29.20;;;;;;5122673;27;20020;-73
2021/04/28 10:42:36;;;;;;;6.07;3.25;;;22.40;28.60;;;;;;5123580;27;20035;-66
2021/04/28 10:45:27;;;;;;;7.00;2.95;;;22.40;28.60;;;;;;5132335;27;20112;-65
2021/04/28 10:47:54;;;;;;;5.47;2.95;;;22.40;28.60;;;;;;5132984;28;20028;-73
2021/04/28 10:50:35;;;;;;;5.78;2.80;;;22.50;28.80;;;;;;5126493;27;20023;-73
2021/04/28 10:53:06;;;;;;;4.07;2.58;;;22.50;28.70;;;;;;5128766;27;20039;-71
2021/04/28 10:55:46;;;;;;;16.80;3.30;;;22.60;28.40;;;;;;5129662;28;20049;-72
2021/04/28 10:58:28;;;;;;;4.63;3.25;;;22.60;28.30;;;;;;5119696;27;20024;-72
2021/04/28 11:01:06;;;;;;;4.03;2.90;;;22.60;28.30;;;;;;5130844;28;20020;-72
2021/04/28 11:03:45;;;;;;;6.28;3.10;;;22.70;28.00;;;;;;5123558;27;20024;-73
2021/04/28 11:06:17;;;;;;;4.13;2.50;;;22.70;27.80;;;;;;5121304;28;20030;-73
2021/04/28 11:08:53;;;;;;;2.83;2.15;;;22.70;27.80;;;;;;5119590;27;20058;-72
2021/04/28 11:11:35;;;;;;;11.35;2.90;;;22.70;28.00;;;;;;5112276;27;20047;-72
2021/04/28 11:16:56;;;;;;;6.15;2.22;;;22.60;28.00;;;;;;5148984;27;20076;-72
2021/04/28 11:19:23;;;;;;;8.70;2.78;;;22.70;28.20;;;;;;5154217;27;20033;-72
2021/04/28 11:22:21;;;;;;;2.72;2.30;;;22.70;27.90;;;;;;5154122;27;20151;-71
2021/04/28 11:25:03;;;;;;;4.18;2.60;;;22.70;28.00;;;;;;5128286;28;20023;-72
2021/04/28 11:27:54;;;;;;;9.18;2.75;;;22.70;27.90;;;;;;5133275;27;20030;-72
2021/04/28 11:30:41;;;;;;;2.78;1.98;;;22.80;27.90;;;;;;5133059;27;20080;-72
2021/04/28 11:33:17;;;;;;;3.00;2.30;;;22.80;27.90;;;;;;5133036;28;20396;-72
2021/04/28 11:35:52;;;;;;;4.38;1.92;;;22.80;27.80;;;;;;5132894;27;20027;-72
2021/04/28 11:38:19;;;;;;;7.47;2.30;;;22.80;27.40;;;;;;5134262;27;20023;-73
2021/04/28 11:41:12;;;;;;;3.08;2.10;;;22.90;27.40;;;;;;5136497;27;20023;-72
2021/04/28 11:44:01;;;;;;;2.63;2.30;;;22.80;27.30;;;;;;5136924;27;20027;-72
2021/04/28 11:46:29;;;;;;;3.70;2.38;;;22.90;27.20;;;;;;5136936;27;20023;-72
2021/04/28 11:48:57;;;;;;;3.70;2.30;;;22.90;27.30;;;;;;5136717;27;20011;-72
2021/04/28 11:51:26;;;;;;;6.82;3.15;;;23.00;27.20;;;;;;5136485;27;20034;-72
2021/04/28 11:54:01;;;;;;;4.45;2.88;;;23.00;26.40;;;;;;5122432;27;20118;-72
2021/04/28 11:56:31;;;;;;;3.60;2.70;;;23.00;26.50;;;;;;5136650;27;20034;-72
2021/04/28 11:58:59;;;;;;;4.35;1.83;;;23.00;26.00;;;;;;5133899;27;20103;-72
2021/04/28 12:01:31;;;;;;;4.57;2.45;;;23.10;26.30;;;;;;5136449;27;20020;-72
2021/04/28 12:04:08;;;;;;;1.70;1.50;;;23.10;25.90;;;;;;5131868;27;20144;-72
2021/04/28 12:06:40;;;;;;;4.00;2.15;;;23.10;26.20;;;;;;5114387;28;20019;-72
2021/04/28 12:09:24;;;;;;;3.75;1.85;;;23.10;25.30;;;;;;5115743;28;20574;-72
2021/04/28 12:12:08;;;;;;;1.85;1.50;;;23.20;25.60;;;;;;5115685;27;20465;-72
2021/04/28 12:14:35;;;;;;;7.18;2.40;;;23.20;25.70;;;;;;5115903;27;20141;-72
2021/04/28 12:17:01;;;;;;;8.20;2.63;;;23.30;25.60;;;;;;5120058;27;20473;-72
2021/04/28 12:19:27;;;;;;;6.38;2.72;;;23.40;25.90;;;;;;5136211;27;20502;-72
2021/04/28 12:21:54;;;;;;;3.28;2.00;;;23.40;25.40;;;;;;5128812;27;20031;-72
2021/04/28 12:24:51;;;;;;;9.02;2.75;;;23.40;25.50;;;;;;5126928;27;20031;-72
2021/04/28 12:27:21;;;;;;;4.68;2.13;;;23.50;25.80;;;;;;5134576;27;20096;-72
2021/04/28 12:29:58;;;;;;;4.65;2.08;;;23.50;25.40;;;;;;5134532;27;20020;-72
2021/04/28 12:32:29;;;;;;;2.60;1.98;;;23.60;25.90;;;;;;5120770;27;20430;-72
2021/04/28 12:35:19;;;;;;;3.35;2.05;;;23.70;25.30;;;;;;5115215;28;20473;-72
2021/04/28 12:38:05;;;;;;;11.32;2.28;;;23.70;25.50;;;;;;5115153;28;20024;-72
2021/04/28 12:41:01;;;;;;;4.30;2.03;;;23.80;25.40;;;;;;5115250;28;20020;-72
2021/04/28 12:43:33;;;;;;;3.38;1.67;;;23.90;25.50;;;;;;5086216;28;20121;-70
2021/04/28 12:46:11;;;;;;;5.57;1.92;;;24.00;25.10;;;;;;5072169;28;20028;-70
2021/04/28 12:48:54;;;;;;;7.97;2.00;;;24.00;24.50;;;;;;5071768;28;20429;-69
2021/04/28 12:51:20;;;;;;;3.88;1.90;;;24.00;23.80;;;;;;5071277;28;20024;-70
2021/04/28 12:53:46;;;;;;;2.70;1.70;;;24.00;23.90;;;;;;5076613;28;20383;-70
2021/04/28 12:56:12;;;;;;;6.38;1.58;;;24.10;24.40;;;;;;5091744;28;20454;-70
2021/04/28 12:58:45;;;;;;;4.22;1.88;;;24.20;24.60;;;;;;5091922;28;20036;-71